createdAt,value
2018-02-13T00:49:22.525Z,97455.12
2018-02-13T00:51:50.054Z,97451.81
2018-02-13T00:54:17.613Z,97452.21
2018-02-13T00:56:45.170Z,97450.47
2018-02-13T00:59:12.690Z,97460.38
2018-02-13T01:01:40.233Z,97453.77
2018-02-13T01:04:07.748Z,97459.55
2018-02-13T01:06:35.717Z,97456.78
2018-02-13T01:09:03.237Z,97459.31
2018-02-13T01:11:30.743Z,97456.37
2018-02-13T01:13:58.286Z,97456.56
2018-02-13T01:16:25.802Z,97456.96
2018-02-13T01:18:53.491Z,97456.05
2018-02-13T01:21:21.002Z,97455.67
2018-02-13T01:23:48.517Z,97452.62
2018-02-13T01:26:16.062Z,97454.77
2018-02-13T01:28:43.565Z,97455.25
2018-02-13T01:31:11.117Z,97451.90
2018-02-13T01:33:38.625Z,97445.51
2018-02-13T01:36:06.138Z,97448.94
2018-02-13T01:38:33.682Z,97447.00
2018-02-13T01:41:01.195Z,97453.67
2018-02-13T01:43:28.943Z,97443.88
2018-02-13T01:45:56.443Z,97442.74
2018-02-13T01:48:23.957Z,97440.33
2018-02-13T01:50:51.500Z,97442.02
2018-02-13T01:53:19.019Z,97436.32
2018-02-13T01:55:46.567Z,97433.35
2018-02-13T01:58:14.077Z,97437.12
2018-02-13T02:00:41.589Z,97436.64
2018-02-13T02:03:09.127Z,97433.44
2018-02-13T02:05:37.125Z,97433.98
2018-02-13T02:08:04.783Z,97431.59
2018-02-13T02:10:32.298Z,97428.77
2018-02-13T02:12:59.821Z,97427.93
2018-02-13T02:15:27.398Z,97432.41
2018-02-13T02:17:54.914Z,97429.09
2018-02-13T02:20:22.577Z,97427.83
2018-02-13T02:22:50.090Z,97428.66
2018-02-13T02:25:17.598Z,97431.89
2018-02-13T02:27:45.129Z,97428.62
2018-02-13T02:30:12.642Z,97431.83
2018-02-13T02:32:40.373Z,97430.64
2018-02-13T02:35:07.882Z,97432.55
2018-02-13T02:37:35.402Z,97423.25
2018-02-13T02:40:02.941Z,97429.91
2018-02-13T02:42:42.188Z,97422.62
2018-02-13T02:45:09.816Z,97424.11
2018-02-13T02:47:37.337Z,97418.47
2018-02-13T02:50:04.869Z,97416.45
2018-02-13T02:52:32.398Z,97407.27
2018-02-13T02:54:59.915Z,97407.98
2018-02-13T02:57:27.744Z,97407.45
2018-02-13T02:59:55.255Z,97406.35
2018-02-13T03:02:22.766Z,97402.54
2018-02-13T03:04:50.306Z,97401.79
2018-02-13T03:07:17.832Z,97404.25
2018-02-13T03:09:45.398Z,97400.73
2018-02-13T03:12:12.913Z,97400.36
2018-02-13T03:14:40.431Z,97403.09
2018-02-13T03:17:07.995Z,97401.88
2018-02-13T03:19:35.506Z,97391.15
2018-02-13T03:22:06.167Z,97395.45
2018-02-13T03:24:34.063Z,97391.91
2018-02-13T03:27:02.170Z,97390.75
2018-02-13T03:29:30.048Z,97391.31
2018-02-13T03:31:57.561Z,97389.40
2018-02-13T03:34:25.575Z,97388.41
2018-02-13T03:36:53.094Z,97386.78
2018-02-13T03:39:21.721Z,97388.28
2018-02-13T03:41:49.269Z,97385.33
2018-02-13T03:44:16.936Z,97382.05
2018-02-13T03:46:44.814Z,97383.34
2018-02-13T03:49:13.623Z,97378.11
2018-02-13T03:51:41.452Z,97381.88
2018-02-13T03:54:09.384Z,97378.45
2018-02-13T03:56:36.895Z,97373.10
2018-02-13T03:59:04.605Z,97372.98
2018-02-13T04:01:32.365Z,97369.30
2018-02-13T04:03:59.890Z,97375.09
2018-02-13T04:06:27.430Z,97381.16
2018-02-13T04:08:54.953Z,97372.53
2018-02-13T04:11:22.814Z,97369.20
2018-02-13T04:13:50.321Z,97361.32
2018-02-13T04:16:17.833Z,97360.97
2018-02-13T04:18:45.386Z,97366.39
2018-02-13T04:21:12.962Z,97359.98
2018-02-13T04:23:40.714Z,97355.77
2018-02-13T04:26:08.260Z,97356.30
2018-02-13T04:28:35.831Z,97356.41
2018-02-13T04:31:03.393Z,97361.13
2018-02-13T04:33:30.921Z,97355.03
2018-02-13T04:35:58.485Z,97358.05
2018-02-13T04:38:26.006Z,97349.84
2018-02-13T04:40:53.524Z,97356.13
2018-02-13T04:43:21.074Z,97354.83
2018-02-13T04:45:48.662Z,97355.23
2018-02-13T04:48:16.238Z,97348.87
2018-02-13T04:50:43.750Z,97345.75
2018-02-13T04:53:11.266Z,97342.80
2018-02-13T04:55:38.813Z,97345.34
2018-02-13T04:58:06.325Z,97337.89
2018-02-13T05:00:34.044Z,97341.14
2018-02-13T05:03:01.542Z,97345.38
2018-02-13T05:05:29.062Z,97344.90
2018-02-13T05:07:56.617Z,97343.70
2018-02-13T05:10:24.134Z,97339.95
2018-02-13T05:12:51.858Z,97336.55
2018-02-13T05:15:19.357Z,97335.67
2018-02-13T05:17:46.875Z,97341.63
2018-02-13T05:20:14.425Z,97343.67
2018-02-13T05:22:41.956Z,97333.17
2018-02-13T05:25:13.685Z,97330.48
2018-02-13T05:27:41.233Z,97331.80
2018-02-13T05:30:08.755Z,97335.59
2018-02-13T05:32:36.306Z,97333.13
2018-02-13T05:35:05.609Z,97332.55
2018-02-13T05:37:33.722Z,97327.56
2018-02-13T05:40:01.698Z,97330.02
2018-02-13T05:42:29.404Z,97326.06
2018-02-13T05:44:57.162Z,97328.69
2018-02-13T05:47:24.819Z,97327.02
2018-02-13T05:49:52.678Z,97327.91
2018-02-13T05:52:20.237Z,97335.32
2018-02-13T05:54:47.806Z,97329.98
2018-02-13T05:57:15.357Z,97325.83
2018-02-13T05:59:42.886Z,97326.98
2018-02-13T06:02:10.429Z,97321.38
2018-02-13T06:04:37.964Z,97315.95
2018-02-13T06:07:05.477Z,97316.85
2018-02-13T06:09:33.034Z,97317.19
2018-02-13T06:12:00.559Z,97314.62
2018-02-13T06:14:28.259Z,97316.58
2018-02-13T06:16:55.774Z,97312.23
2018-02-13T06:19:23.286Z,97311.34
2018-02-13T06:21:50.846Z,97305.98
2018-02-13T06:24:18.356Z,97306.77
2018-02-13T06:26:46.022Z,97308.27
2018-02-13T06:29:13.546Z,97316.62
2018-02-13T06:31:41.065Z,97309.87
2018-02-13T06:34:08.614Z,97306.74
2018-02-13T06:36:36.126Z,97312.89
2018-02-13T06:39:04.081Z,97316.88
2018-02-13T06:41:31.598Z,97319.02
2018-02-13T06:43:59.128Z,97321.09
2018-02-13T06:46:26.674Z,97316.74
2018-02-13T06:48:54.189Z,97317.47
2018-02-13T06:51:21.739Z,97317.41
2018-02-13T06:53:49.263Z,97320.13
2018-02-13T06:56:16.778Z,97308.88
2018-02-13T06:58:44.413Z,97314.20
2018-02-13T07:01:11.927Z,97313.84
2018-02-13T07:03:39.845Z,97315.17
2018-02-13T07:06:07.379Z,97311.41
2018-02-13T07:08:34.906Z,97315.98
2018-02-13T07:11:02.463Z,97319.45
2018-02-13T07:13:29.987Z,97322.80
2018-02-13T07:15:57.849Z,97312.58
2018-02-13T07:18:25.402Z,97309.28
2018-02-13T07:20:52.926Z,97311.85
2018-02-13T07:23:20.474Z,97313.44
2018-02-13T07:25:47.994Z,97311.80
2018-02-13T07:28:15.547Z,97311.97
2018-02-13T07:30:43.078Z,97309.92
2018-02-13T07:33:10.617Z,97310.34
2018-02-13T07:35:38.169Z,97311.66
2018-02-13T07:38:05.692Z,97313.23
2018-02-13T07:40:33.264Z,97309.11
2018-02-13T07:43:00.792Z,97310.58
2018-02-13T07:45:28.307Z,97311.91
2018-02-13T07:47:55.885Z,97308.59
2018-02-13T07:50:23.398Z,97314.34
2018-02-13T07:52:50.955Z,97310.33
2018-02-13T07:55:18.478Z,97301.59
2018-02-13T07:57:45.986Z,97306.52
2018-02-13T08:00:13.526Z,97302.87
2018-02-13T08:02:41.037Z,97301.63
2018-02-13T08:05:08.926Z,97298.72
2018-02-13T08:07:36.433Z,97293.72
2018-02-13T08:10:03.965Z,97294.17
2018-02-13T08:12:31.505Z,97290.00
2018-02-13T08:14:59.141Z,97283.38
2018-02-13T08:17:26.721Z,97282.53
2018-02-13T08:19:54.377Z,97279.58
2018-02-13T08:22:21.893Z,97269.15
2018-02-13T08:24:49.442Z,97274.16
2018-02-13T08:27:16.948Z,97261.23
2018-02-13T08:29:44.618Z,97273.64
2018-02-13T08:32:12.137Z,97269.06
2018-02-13T08:34:39.650Z,97269.84
2018-02-13T08:37:07.182Z,97266.44
2018-02-13T08:39:34.694Z,97265.97
2018-02-13T08:42:02.337Z,97270.58
2018-02-13T08:44:29.849Z,97261.70
2018-02-13T08:46:57.370Z,97261.73
2018-02-13T08:49:24.962Z,97260.70
2018-02-13T08:51:52.490Z,97256.94
2018-02-13T08:54:20.036Z,97263.14
2018-02-13T08:56:47.550Z,97246.32
2018-02-13T08:59:15.070Z,97255.66
2018-02-13T09:01:42.624Z,97249.58
2018-02-13T09:04:10.130Z,97246.09
2018-02-13T09:06:37.813Z,97231.73
2018-02-13T09:09:05.346Z,97235.62
2018-02-13T09:11:32.886Z,97232.88
2018-02-13T09:14:00.430Z,97227.48
2018-02-13T09:16:27.941Z,97230.38
2018-02-13T09:18:55.702Z,97225.23
2018-02-13T09:21:23.242Z,97223.52
2018-02-13T09:23:50.749Z,97216.33
2018-02-13T09:26:18.287Z,97217.45
2018-02-13T09:28:45.797Z,97217.25
2018-02-13T09:31:13.373Z,97218.08
2018-02-13T09:33:40.886Z,97215.56
2018-02-13T09:36:08.397Z,97209.95
2018-02-13T09:38:35.993Z,97209.42
2018-02-13T09:41:03.501Z,97194.84
2018-02-13T09:43:31.062Z,97197.46
2018-02-13T09:45:58.573Z,97198.05
2018-02-13T09:48:26.742Z,97194.68
2018-02-13T09:50:54.404Z,97188.57
2018-02-13T09:53:21.928Z,97185.20
2018-02-13T09:55:49.606Z,97181.52
2018-02-13T09:58:17.123Z,97178.36
2018-02-13T10:00:44.640Z,97180.23
2018-02-13T10:03:12.188Z,97176.45
2018-02-13T10:05:39.702Z,97173.11
2018-02-13T10:08:07.727Z,97181.87
2018-02-13T10:10:35.249Z,97171.28
2018-02-13T10:13:02.774Z,97164.86
2018-02-13T10:15:30.549Z,97165.47
2018-02-13T10:17:58.476Z,97155.23
2018-02-13T10:20:26.244Z,97155.52
2018-02-13T10:22:53.799Z,97152.82
2018-02-13T10:25:21.359Z,97150.72
2018-02-13T10:27:48.897Z,97141.80
2018-02-13T10:30:16.410Z,97138.16
2018-02-13T10:32:44.893Z,97128.04
2018-02-13T10:35:12.383Z,97126.80
2018-02-13T10:37:39.925Z,97129.92
2018-02-13T10:40:07.481Z,97130.58
2018-02-13T10:42:35.069Z,97125.42
2018-02-13T10:45:02.728Z,97123.23
2018-02-13T10:47:30.418Z,97112.96
2018-02-13T10:49:57.976Z,97108.73
2018-02-13T10:52:25.965Z,97110.78
2018-02-13T10:54:53.824Z,97111.13
2018-02-13T10:57:21.553Z,97121.34
2018-02-13T10:59:49.377Z,97103.93
2018-02-13T11:02:22.902Z,97103.23
2018-02-13T11:04:50.848Z,97107.97
2018-02-13T11:07:18.890Z,97108.89
2018-02-13T11:09:46.547Z,97102.23
2018-02-13T11:12:14.114Z,97093.36
2018-02-13T11:14:41.736Z,97081.30
2018-02-13T11:17:09.333Z,97083.01
2018-02-13T11:19:37.085Z,97072.98
2018-02-13T11:22:04.706Z,97072.50
2018-02-13T11:24:32.509Z,97055.97
2018-02-13T11:27:00.478Z,97052.79
2018-02-13T11:29:28.285Z,97056.25
2018-02-13T11:31:56.831Z,97047.92
2018-02-13T11:34:24.482Z,97047.23
2018-02-13T11:36:52.149Z,97044.63
2018-02-13T11:39:19.904Z,97035.55
2018-02-13T11:41:47.422Z,97032.34
2018-02-13T11:44:14.940Z,97015.13
2018-02-13T11:46:42.497Z,97017.80
2018-02-13T11:49:10.011Z,97019.31
2018-02-13T11:51:37.814Z,97009.45
2018-02-13T11:54:05.577Z,97001.52
2018-02-13T11:56:33.180Z,96998.56
2018-02-13T11:59:00.709Z,97001.25
2018-02-13T12:01:28.227Z,96996.40
2018-02-13T12:03:55.777Z,96993.76
2018-02-13T12:06:23.390Z,96992.76
2018-02-13T12:08:51.112Z,96990.57
2018-02-13T12:11:18.673Z,96979.22
2018-02-13T12:13:46.228Z,96970.36
2018-02-13T12:16:14.217Z,96976.75
2018-02-13T12:18:41.786Z,96968.67
2018-02-13T12:21:09.649Z,96970.21
2018-02-13T12:23:37.224Z,96967.80
2018-02-13T12:26:04.972Z,96955.66
2018-02-13T12:28:33.453Z,96947.27
2018-02-13T12:31:01.218Z,96942.53
2018-02-13T12:33:28.880Z,96939.70
2018-02-13T12:35:56.576Z,96930.80
2018-02-13T12:38:24.509Z,96925.46
2018-02-13T12:40:52.682Z,96926.32
2018-02-13T12:43:20.408Z,96920.94
2018-02-13T12:45:48.211Z,96918.16
2018-02-13T12:48:15.974Z,96919.24
2018-02-13T12:50:43.740Z,96906.63
2018-02-13T12:53:11.450Z,96908.41
2018-02-13T12:55:39.281Z,96903.30
2018-02-13T12:58:06.875Z,96901.63
2018-02-13T13:00:34.411Z,96903.52
2018-02-13T13:03:02.188Z,96898.31
2018-02-13T13:05:29.909Z,96893.80
2018-02-13T13:07:57.537Z,96891.62
2018-02-13T13:10:25.117Z,96887.22
2018-02-13T13:12:52.694Z,96878.22
2018-02-13T13:15:20.197Z,96868.31
2018-02-13T13:17:47.998Z,96873.11
2018-02-13T13:20:15.589Z,96874.78
2018-02-13T13:22:43.098Z,96872.51
2018-02-13T13:25:10.671Z,96871.06
2018-02-13T13:27:38.330Z,96865.30
2018-02-13T13:30:05.878Z,96855.59
2018-02-13T13:32:33.409Z,96843.80
2018-02-13T13:35:00.931Z,96850.78
2018-02-13T13:37:28.473Z,96837.20
2018-02-13T13:39:55.990Z,96838.66
2018-02-13T13:42:23.901Z,96835.19
2018-02-13T13:44:51.414Z,96829.17
2018-02-13T13:47:18.942Z,96824.92
2018-02-13T13:49:46.665Z,96820.34
2018-02-13T13:52:14.198Z,96823.79
2018-02-13T13:54:41.758Z,96810.54
2018-02-13T13:57:09.270Z,96815.91
2018-02-13T13:59:36.784Z,96816.27
2018-02-13T14:02:04.392Z,96807.28
2018-02-13T14:04:32.010Z,96802.58
2018-02-13T14:07:00.702Z,96804.34
2018-02-13T14:09:28.375Z,96802.38
2018-02-13T14:11:56.082Z,96802.84
2018-02-13T14:14:23.622Z,96793.25
2018-02-13T14:16:51.977Z,96794.79
2018-02-13T14:19:19.642Z,96786.47
2018-02-13T14:21:47.221Z,96777.30
2018-02-13T14:24:14.787Z,96780.80
2018-02-13T14:26:42.440Z,96781.95
2018-02-13T14:29:09.979Z,96777.78
2018-02-13T14:31:37.538Z,96777.67
2018-02-13T14:34:05.046Z,96775.14
2018-02-13T14:36:32.770Z,96782.64
2018-02-13T14:39:00.277Z,96776.87
2018-02-13T14:41:27.803Z,96777.77
2018-02-13T14:43:55.378Z,96771.93
2018-02-13T14:46:23.017Z,96773.22
2018-02-13T14:48:50.984Z,96770.63
2018-02-13T14:51:18.702Z,96779.66
2018-02-13T14:53:46.821Z,96780.61
2018-02-13T14:56:14.449Z,96775.22
2018-02-13T14:58:42.134Z,96774.98
2018-02-13T15:01:09.722Z,96768.50
2018-02-13T15:03:37.291Z,96776.41
2018-02-13T15:06:04.924Z,96775.17
2018-02-13T15:08:32.565Z,96771.88
2018-02-13T15:11:00.166Z,96764.61
2018-02-13T15:13:27.889Z,96769.87
2018-02-13T15:15:55.898Z,96764.61
2018-02-13T15:18:30.362Z,96769.13
2018-02-13T15:20:57.958Z,96771.80
2018-02-13T15:23:25.492Z,96763.94
2018-02-13T15:25:53.282Z,96759.52
2018-02-13T15:28:20.945Z,96763.92
2018-02-13T15:30:49.193Z,96764.13
2018-02-13T15:33:16.765Z,96768.90
2018-02-13T15:35:44.425Z,96765.52
2018-02-13T15:38:12.103Z,96772.09
2018-02-13T15:40:39.907Z,96768.51
2018-02-13T15:43:07.637Z,96768.68
2018-02-13T15:45:35.294Z,96769.77
2018-02-13T15:48:02.852Z,96770.17
2018-02-13T15:50:30.617Z,96767.69
2018-02-13T15:52:58.294Z,96763.75
2018-02-13T15:55:26.349Z,96767.20
2018-02-13T15:57:53.897Z,96762.09
2018-02-13T16:00:21.479Z,96764.26
2018-02-13T16:02:49.098Z,96767.25
2018-02-13T16:05:16.894Z,96757.45
2018-02-13T16:07:44.658Z,96755.98
2018-02-13T16:10:12.728Z,96759.65
2018-02-13T16:12:40.499Z,96757.00
2018-02-13T16:15:08.263Z,96754.55
2018-02-13T16:17:35.932Z,96754.02
2018-02-13T16:20:04.821Z,96753.55
2018-02-13T16:22:32.690Z,96753.06
2018-02-13T16:25:00.667Z,96756.58
2018-02-13T16:27:28.311Z,96751.02
2018-02-13T16:29:56.070Z,96753.42
2018-02-13T16:32:23.834Z,96756.34
2018-02-13T16:34:51.952Z,96757.83
2018-02-13T16:37:19.822Z,96759.23
2018-02-13T16:39:48.449Z,96752.80
2018-02-13T16:42:16.604Z,96751.23
2018-02-13T16:44:45.424Z,96753.21
2018-02-13T16:47:13.679Z,96752.84
2018-02-13T16:49:42.378Z,96749.61
2018-02-13T16:52:10.454Z,96745.84
2018-02-13T16:54:38.648Z,96750.36
2018-02-13T16:57:06.919Z,96750.30
2018-02-13T16:59:35.169Z,96752.96
2018-02-13T17:02:03.322Z,96755.94
2018-02-13T17:04:31.605Z,96756.67
2018-02-13T17:06:59.510Z,96762.66
2018-02-13T17:09:27.822Z,96757.86
2018-02-13T17:11:56.884Z,96756.34
2018-02-13T17:14:25.362Z,96757.66
2018-02-13T17:16:53.333Z,96763.22
2018-02-13T17:19:21.182Z,96761.19
2018-02-13T17:21:50.952Z,96763.69
2018-02-13T17:24:20.288Z,96765.55
2018-02-13T17:26:49.480Z,96762.58
2018-02-13T17:29:17.871Z,96759.98
2018-02-13T17:31:46.169Z,96766.84
2018-02-13T17:34:14.013Z,96769.16
2018-02-13T17:36:41.760Z,96764.05
2018-02-13T17:39:09.847Z,96773.50
2018-02-13T17:41:37.937Z,96774.75
2018-02-13T17:44:05.991Z,96773.88
2018-02-13T17:46:33.669Z,96781.17
2018-02-13T17:49:01.914Z,96779.19
2018-02-13T17:51:30.091Z,96782.92
2018-02-13T17:53:58.176Z,96780.62
2018-02-13T17:56:26.245Z,96783.24
2018-02-13T17:58:54.433Z,96779.08
2018-02-13T18:01:23.330Z,96782.30
2018-02-13T18:03:51.382Z,96781.99
2018-02-13T18:06:19.353Z,96788.31
2018-02-13T18:08:47.603Z,96790.44
2018-02-13T18:11:15.947Z,96789.71
2018-02-13T18:13:46.114Z,96788.08
2018-02-13T18:16:14.536Z,96792.17
2018-02-13T18:18:42.663Z,96788.66
2018-02-13T18:21:10.454Z,96791.27
2018-02-13T18:23:39.580Z,96786.80
2018-02-13T18:26:07.921Z,96786.80
2018-02-13T18:28:36.561Z,96788.36
2018-02-13T18:31:04.466Z,96790.96
2018-02-13T18:33:32.865Z,96799.14
2018-02-13T18:36:01.417Z,96797.17
2018-02-13T18:38:29.614Z,96792.80
2018-02-13T18:40:58.157Z,96795.99
2018-02-13T18:43:26.348Z,96794.81
2018-02-13T18:45:54.732Z,96796.83
2018-02-13T18:48:23.177Z,96797.28
2018-02-13T18:50:51.130Z,96793.15
2018-02-13T18:53:19.227Z,96794.40
2018-02-13T18:55:47.089Z,96798.63
2018-02-13T18:58:14.959Z,96795.20
2018-02-13T19:00:44.562Z,96796.71
2018-02-13T19:03:13.015Z,96789.16
2018-02-13T19:05:42.484Z,96789.99
2018-02-13T19:08:10.870Z,96789.64
2018-02-13T19:10:38.827Z,96786.20
2018-02-13T19:13:06.980Z,96785.66
2018-02-13T19:15:35.345Z,96787.32
2018-02-13T19:18:03.682Z,96784.64
2018-02-13T19:20:31.728Z,96788.77
2018-02-13T19:22:59.593Z,96788.42
2018-02-13T19:25:27.460Z,96783.05
2018-02-13T19:27:55.736Z,96783.84
2018-02-13T19:30:23.910Z,96788.04
2018-02-13T19:32:51.881Z,96782.98
2018-02-13T19:35:19.848Z,96784.23
2018-02-13T19:37:47.948Z,96785.54
2018-02-13T19:40:15.888Z,96784.30
2018-02-13T19:42:43.986Z,96778.14
2018-02-13T19:45:12.054Z,96781.89
2018-02-13T19:47:40.912Z,96774.91
2018-02-13T19:50:09.197Z,96779.19
2018-02-13T19:52:37.168Z,96780.16
2018-02-13T19:55:05.441Z,96782.21
2018-02-13T19:57:34.043Z,96783.91
2018-02-13T20:00:02.374Z,96785.59
2018-02-13T20:02:30.885Z,96786.78
2018-02-13T20:04:59.262Z,96788.42
2018-02-13T20:07:27.861Z,96783.92
2018-02-13T20:09:56.039Z,96783.56
2018-02-13T20:12:24.313Z,96787.80
2018-02-13T20:14:53.200Z,96784.94
2018-02-13T20:17:21.986Z,96785.70
2018-02-13T20:19:50.716Z,96783.72
2018-02-13T20:22:19.032Z,96777.77
2018-02-13T20:24:46.909Z,96788.55
2018-02-13T20:27:15.656Z,96785.65
2018-02-13T20:29:43.560Z,96777.64
2018-02-13T20:32:13.611Z,96785.59
2018-02-13T20:34:44.426Z,96786.09
2018-02-13T20:37:13.111Z,96783.28
2018-02-13T20:39:41.810Z,96783.77
2018-02-13T20:42:10.039Z,96781.31
2018-02-13T20:44:38.464Z,96784.25
2018-02-13T20:47:06.846Z,96778.84
2018-02-13T20:49:35.631Z,96782.15
2018-02-13T20:52:03.980Z,96782.86
2018-02-13T20:54:32.465Z,96779.56
2018-02-13T20:57:00.975Z,96785.01
2018-02-13T20:59:29.451Z,96777.58
2018-02-13T21:01:58.207Z,96780.09
2018-02-13T21:04:26.591Z,96779.72
2018-02-13T21:06:55.082Z,96788.80
2018-02-13T21:09:24.064Z,96789.70
2018-02-13T21:11:52.550Z,96796.34
2018-02-13T21:14:21.496Z,96795.59
2018-02-13T21:16:49.913Z,96792.72
2018-02-13T21:19:18.526Z,96793.58
2018-02-13T21:21:47.687Z,96793.61
2018-02-13T21:24:15.755Z,96795.73
2018-02-13T21:26:45.053Z,96799.49
2018-02-13T21:29:13.341Z,96791.20
2018-02-13T21:31:43.616Z,96795.37
2018-02-13T21:34:12.043Z,96792.07
2018-02-13T21:36:40.545Z,96791.67
2018-02-13T21:39:09.031Z,96787.92
2018-02-13T21:41:38.158Z,96792.10
2018-02-13T21:44:07.658Z,96788.75
2018-02-13T21:46:36.010Z,96791.28
2018-02-13T21:49:04.353Z,96788.41
2018-02-13T21:51:32.601Z,96792.58
2018-02-13T21:54:03.507Z,96785.94
2018-02-13T21:56:31.978Z,96799.20
2018-02-13T21:59:00.345Z,96791.33
2018-02-13T22:01:28.107Z,96794.26
2018-02-13T22:03:57.524Z,96790.54
2018-02-13T22:06:26.705Z,96791.38
2018-02-13T22:08:55.751Z,96794.28
2018-02-13T22:11:23.667Z,96795.54
2018-02-13T22:13:51.509Z,96795.55
2018-02-13T22:16:19.374Z,96807.63
2018-02-13T22:18:47.267Z,96805.94
2018-02-13T22:21:15.607Z,96804.28
2018-02-13T22:23:43.475Z,96808.86
2018-02-13T22:26:11.277Z,96815.10
2018-02-13T22:28:39.209Z,96814.26
2018-02-13T22:31:07.111Z,96815.53
2018-02-13T22:33:35.594Z,96824.24
2018-02-13T22:36:03.458Z,96822.59
2018-02-13T22:38:31.635Z,96820.53
2018-02-13T22:40:59.601Z,96828.42
2018-02-13T22:43:27.468Z,96826.37
2018-02-13T22:45:55.432Z,96830.91
2018-02-13T22:48:23.201Z,96835.07
2018-02-13T22:50:51.887Z,96830.10
2018-02-13T22:53:20.676Z,96833.00
2018-02-13T22:55:48.345Z,96833.42
2018-02-13T22:58:16.306Z,96830.13
2018-02-13T23:00:44.074Z,96821.81
2018-02-13T23:03:11.936Z,96833.43
2018-02-13T23:05:40.008Z,96821.41
2018-02-13T23:08:08.078Z,96828.03
2018-02-13T23:10:36.057Z,96834.21
2018-02-13T23:13:03.902Z,96833.38
2018-02-13T23:15:31.782Z,96836.23
2018-02-13T23:17:59.812Z,96844.52
2018-02-13T23:20:27.484Z,96834.58
2018-02-13T23:22:55.482Z,96838.75
2018-02-13T23:25:23.246Z,96840.42
2018-02-13T23:27:50.954Z,96844.19
2018-02-13T23:30:19.769Z,96839.63
2018-02-13T23:32:47.321Z,96842.14
2018-02-13T23:35:15.063Z,96847.95
2018-02-13T23:37:42.661Z,96840.91
2018-02-13T23:40:10.342Z,96840.91
2018-02-13T23:42:38.005Z,96845.87
2018-02-13T23:45:05.771Z,96845.89
2018-02-13T23:47:33.944Z,96844.23
2018-02-13T23:50:01.528Z,96841.32
2018-02-13T23:52:29.366Z,96850.87
2018-02-13T23:54:57.035Z,96852.09
2018-02-13T23:57:24.623Z,96852.10
2018-02-13T23:59:52.302Z,96853.34
